Time;durP1;ratioP1;P1;durP2;ratioP2;P2;SDS_P1;SDS_P2;PMS_P1;PMS_P2;Temp;Humidity;BMP_temperature;BMP_pressure;BME280_temperature;BME280_humidity;BME280_pressure;Samples;Min_cycle;Max_cycle;Signal;HPM_P1;HPM_P2
2022/06/29 00:00:51;;;;;;;0.65;0.60;;;18.20;61.80;20.40;93864.00;;;;10482319;28;45143;-64
2022/06/29 00:06:12;;;;;;;0.50;0.50;;;18.30;62.00;20.40;93855.00;;;;10482105;28;45197;-64
2022/06/29 00:11:33;;;;;;;0.40;0.40;;;18.30;62.00;20.40;93851.00;;;;10482216;28;45141;-64
2022/06/29 00:16:54;;;;;;;1.38;0.50;;;18.30;62.00;20.40;93861.00;;;;10481060;28;45196;-64
2022/06/29 00:22:15;;;;;;;0.43;0.40;;;18.30;62.00;20.40;93863.00;;;;10482218;28;45194;-63
2022/06/29 00:27:36;;;;;;;0.82;0.60;;;18.20;61.90;20.40;93868.00;;;;10481613;28;45172;-64
2022/06/29 00:32:58;;;;;;;0.73;0.50;;;18.20;61.90;20.40;93843.00;;;;10481895;28;46126;-64
2022/06/29 00:38:19;;;;;;;0.40;0.40;;;18.30;62.00;20.40;93861.00;;;;10480710;28;45838;-64
2022/06/29 00:43:41;;;;;;;1.35;0.57;;;18.30;62.00;20.40;93849.00;;;;10481833;28;45768;-64
2022/06/29 00:49:03;;;;;;;0.55;0.50;;;18.20;61.90;20.40;93850.00;;;;10480541;28;45271;-64
2022/06/29 00:54:24;;;;;;;0.93;0.70;;;18.30;62.00;20.40;93829.00;;;;10481194;28;45681;-64
2022/06/29 00:59:47;;;;;;;0.75;0.50;;;18.20;61.90;20.40;93842.00;;;;10476872;28;45269;-64
2022/06/29 01:05:10;;;;;;;0.90;0.60;;;18.30;62.00;20.40;93837.00;;;;10476982;28;45264;-64
2022/06/29 01:10:30;;;;;;;0.82;0.50;;;18.30;62.10;20.40;93837.00;;;;10480166;28;45247;-64
2022/06/29 01:15:51;;;;;;;0.95;0.63;;;18.20;62.00;20.40;93836.00;;;;10479787;28;45312;-63
2022/06/29 01:21:13;;;;;;;0.40;0.40;;;18.20;61.90;20.40;93836.00;;;;10480070;28;45805;-64
2022/06/29 01:26:35;;;;;;;0.55;0.50;;;18.30;62.00;20.40;93842.00;;;;10479510;28;45106;-63
2022/06/29 01:31:56;;;;;;;0.60;0.50;;;18.30;62.00;20.40;93832.00;;;;10479805;28;45838;-64
2022/06/29 01:37:17;;;;;;;0.50;0.50;;;18.30;62.10;20.40;93837.00;;;;10478888;28;45303;-63
2022/06/29 01:42:39;;;;;;;0.60;0.60;;;18.20;62.00;20.40;93819.00;;;;10479143;28;45176;-64
2022/06/29 01:47:59;;;;;;;0.80;0.60;;;18.20;62.00;20.40;93836.00;;;;10478530;28;45188;-63
2022/06/29 01:53:20;;;;;;;0.70;0.70;;;18.20;61.90;20.40;93830.00;;;;10478907;28;45854;-64
2022/06/29 01:58:42;;;;;;;0.80;0.63;;;18.20;62.00;20.40;93829.00;;;;10478108;28;45308;-64
2022/06/29 02:04:03;;;;;;;1.27;0.55;;;18.20;62.00;20.40;93809.00;;;;10479361;28;45125;-64
2022/06/29 02:09:24;;;;;;;1.00;0.70;;;18.20;62.00;20.40;93800.00;;;;10478385;28;45383;-64
2022/06/29 02:14:45;;;;;;;0.60;0.60;;;18.20;62.00;20.40;93797.00;;;;10478170;28;45167;-64
2022/06/29 02:20:08;;;;;;;0.50;0.50;;;18.20;62.00;20.40;93788.00;;;;10477544;28;45157;-64
2022/06/29 02:25:28;;;;;;;0.75;0.45;;;18.20;62.00;20.40;93784.00;;;;10477922;28;45176;-64
2022/06/29 02:36:29;;;;;;;1.42;0.70;;;18.20;62.00;20.40;93776.00;;;;10477938;28;45803;-64
2022/06/29 02:41:49;;;;;;;0.85;0.80;;;18.20;62.00;20.40;93779.00;;;;10477159;28;45195;-63
2022/06/29 02:47:11;;;;;;;0.77;0.60;;;18.20;61.90;20.40;93763.00;;;;10477422;28;45858;-64
2022/06/29 02:52:32;;;;;;;0.70;0.60;;;18.20;62.00;20.40;93781.00;;;;10477332;28;45194;-64
2022/06/29 02:57:52;;;;;;;0.85;0.63;;;18.20;61.90;20.40;93771.00;;;;10476594;28;45676;-64
2022/06/29 03:03:14;;;;;;;1.08;0.90;;;18.20;62.00;20.40;93771.00;;;;10477303;28;45786;-64
2022/06/29 03:08:35;;;;;;;0.75;0.60;;;18.20;62.00;20.40;93769.00;;;;10476581;28;45156;-64
2022/06/29 03:13:56;;;;;;;0.73;0.70;;;18.20;62.10;20.40;93758.00;;;;10476814;28;45178;-64
2022/06/29 03:19:18;;;;;;;1.35;0.50;;;18.20;62.00;20.40;93760.00;;;;10476040;28;45777;-63
2022/06/29 03:24:39;;;;;;;2.80;0.70;;;18.20;62.00;20.40;93756.00;;;;10476332;28;45213;-64
2022/06/29 03:30:01;;;;;;;0.70;0.60;;;18.20;62.80;20.40;93768.00;;;;10475847;28;45865;-64
2022/06/29 03:35:22;;;;;;;1.30;0.70;;;18.20;62.00;20.40;93750.00;;;;10476451;28;45231;-64
2022/06/29 03:40:43;;;;;;;1.45;0.90;;;18.20;62.10;20.40;93776.00;;;;10475566;28;45233;-64
2022/06/29 03:46:03;;;;;;;0.75;0.60;;;18.20;62.10;20.40;93763.00;;;;10475227;28;45192;-63
2022/06/29 03:51:26;;;;;;;0.70;0.70;;;18.20;62.10;20.40;93772.00;;;;10478634;28;45883;-64
2022/06/29 03:56:46;;;;;;;0.70;0.70;;;18.20;62.20;20.40;93764.00;;;;10482822;28;45124;-64
2022/06/29 04:02:06;;;;;;;0.65;0.60;;;18.20;62.10;20.40;93775.00;;;;10482586;28;45743;-64
2022/06/29 04:07:28;;;;;;;1.52;0.60;;;18.20;62.10;20.40;93770.00;;;;10481793;28;45184;-64
2022/06/29 04:12:50;;;;;;;0.93;0.73;;;18.20;62.10;20.40;93764.00;;;;10482218;28;45883;-64
2022/06/29 04:18:10;;;;;;;0.70;0.60;;;18.20;62.10;20.40;93777.00;;;;10481699;28;45160;-64
2022/06/29 04:23:32;;;;;;;0.80;0.80;;;18.20;62.10;20.30;93765.00;;;;10482167;28;45159;-63
2022/06/29 04:28:53;;;;;;;0.60;0.60;;;18.20;62.10;20.40;93776.00;;;;10481240;28;45259;-64
2022/06/29 04:34:14;;;;;;;0.60;0.60;;;18.20;62.10;20.40;93763.00;;;;10481531;28;45780;-64
2022/06/29 04:39:36;;;;;;;0.80;0.80;;;18.20;62.10;20.30;93769.00;;;;10481242;28;45669;-64
2022/06/29 04:44:56;;;;;;;1.00;0.75;;;18.20;62.10;20.40;93767.00;;;;10481466;28;45246;-64
2022/06/29 04:50:17;;;;;;;0.88;0.65;;;18.20;62.10;20.40;93767.00;;;;10480373;28;45827;-63
2022/06/29 04:55:39;;;;;;;1.02;0.70;;;18.20;62.10;20.30;93781.00;;;;10480529;28;45168;-64
2022/06/29 05:01:00;;;;;;;0.73;0.73;;;18.10;62.00;20.30;93781.00;;;;10480371;28;45894;-64
2022/06/29 05:06:21;;;;;;;0.80;0.80;;;18.20;62.10;20.30;93770.00;;;;10480086;28;45266;-64
2022/06/29 05:11:43;;;;;;;1.83;0.70;;;18.20;62.10;20.30;93768.00;;;;10480472;28;45319;-64
2022/06/29 05:17:04;;;;;;;0.77;0.77;;;18.20;62.10;20.30;93767.00;;;;10480308;28;45311;-64
2022/06/29 05:22:25;;;;;;;1.08;0.70;;;18.20;62.10;20.30;93768.00;;;;10480177;28;45163;-64
2022/06/29 05:27:47;;;;;;;1.00;0.80;;;18.20;62.10;20.30;93775.00;;;;10479777;28;45132;-64
2022/06/29 05:33:07;;;;;;;0.85;0.80;;;18.20;62.10;20.30;93767.00;;;;10479453;28;45102;-64
2022/06/29 05:38:28;;;;;;;0.68;0.60;;;18.20;62.10;20.30;93780.00;;;;10529785;22;45308;-61
2022/06/29 05:43:51;;;;;;;1.00;0.80;;;18.20;62.10;20.30;93778.00;;;;10564271;27;45102;-61
2022/06/29 05:49:11;;;;;;;0.80;0.80;;;18.20;62.10;20.30;93763.00;;;;10563553;27;45834;-61
2022/06/29 05:54:32;;;;;;;0.90;0.70;;;18.20;62.00;20.30;93776.00;;;;10563582;27;45217;-61
2022/06/29 05:59:54;;;;;;;0.63;0.63;;;18.20;62.10;20.40;93780.00;;;;10562857;27;45167;-62
2022/06/29 06:05:14;;;;;;;0.70;0.70;;;18.20;62.00;20.30;93768.00;;;;10563218;27;45768;-62
2022/06/29 06:10:35;;;;;;;0.80;0.77;;;18.20;62.00;20.30;93766.00;;;;10562611;27;45144;-62
2022/06/29 06:15:57;;;;;;;0.70;0.70;;;18.20;61.90;20.30;93763.00;;;;10561903;27;45756;-63
2022/06/29 06:21:17;;;;;;;1.17;0.70;;;18.20;62.00;20.30;93763.00;;;;10561745;27;44899;-63
2022/06/29 06:26:38;;;;;;;0.70;0.65;;;18.20;62.00;20.30;93766.00;;;;10562136;27;45816;-63
2022/06/29 06:32:01;;;;;;;0.95;0.85;;;18.20;62.00;20.30;93757.00;;;;10562698;27;45222;-63
2022/06/29 06:37:22;;;;;;;1.08;0.80;;;18.20;62.00;20.30;93770.00;;;;10561283;27;45538;-62
2022/06/29 06:42:43;;;;;;;0.88;0.68;;;18.20;62.10;20.30;93774.00;;;;10561864;27;45165;-63
2022/06/29 06:48:05;;;;;;;0.90;0.63;;;18.20;62.10;20.30;93780.00;;;;10559722;27;45322;-62
2022/06/29 06:53:26;;;;;;;0.80;0.57;;;18.20;62.10;20.30;93771.00;;;;10561720;27;45178;-63
2022/06/29 06:58:48;;;;;;;0.90;0.70;;;18.20;62.10;20.30;93783.00;;;;10561948;27;45314;-62
2022/06/29 07:04:10;;;;;;;0.60;0.60;;;18.10;62.00;20.30;93777.00;;;;10561359;27;45792;-61
2022/06/29 07:09:30;;;;;;;0.70;0.70;;;18.20;62.10;20.30;93785.00;;;;10561139;27;45179;-62
2022/06/29 07:14:50;;;;;;;1.10;0.80;;;18.20;62.10;20.30;93788.00;;;;10561267;27;45112;-61
2022/06/29 07:20:12;;;;;;;1.00;0.90;;;18.20;62.10;20.30;93782.00;;;;10560413;27;45198;-62
2022/06/29 07:25:33;;;;;;;0.95;0.82;;;18.10;62.10;20.30;93778.00;;;;10564775;27;45760;-62
2022/06/29 07:30:54;;;;;;;0.80;0.80;;;18.20;62.20;20.30;93770.00;;;;10568287;27;45221;-62
2022/06/29 07:36:15;;;;;;;0.80;0.80;;;18.10;62.10;20.30;93784.00;;;;10568345;27;45403;-63
2022/06/29 07:41:36;;;;;;;1.10;0.90;;;18.10;62.10;20.30;93783.00;;;;10567944;27;45236;-62
2022/06/29 07:46:57;;;;;;;1.08;0.70;;;18.20;62.20;20.30;93782.00;;;;10567860;27;45267;-62
2022/06/29 07:52:19;;;;;;;0.68;0.68;;;18.10;62.10;20.30;93795.00;;;;10568286;27;45775;-62
2022/06/29 07:57:39;;;;;;;0.73;0.70;;;18.10;62.20;20.30;93787.00;;;;10567351;27;45803;-62
2022/06/29 08:03:00;;;;;;;0.77;0.77;;;18.20;62.20;20.30;93791.00;;;;10567251;27;45118;-62
2022/06/29 08:08:22;;;;;;;0.95;0.80;;;18.20;62.20;20.30;93790.00;;;;10566598;27;45180;-62
2022/06/29 08:13:43;;;;;;;1.10;0.90;;;18.10;62.20;20.30;93797.00;;;;10567223;27;45215;-62
2022/06/29 08:19:03;;;;;;;0.80;0.70;;;18.10;62.20;20.30;93804.00;;;;10566437;27;45188;-62
2022/06/29 08:24:27;;;;;;;1.20;0.80;;;18.10;62.20;20.30;93803.00;;;;10567102;27;45663;-61
2022/06/29 08:29:47;;;;;;;0.80;0.80;;;18.10;62.20;20.30;93801.00;;;;10566161;27;45192;-62
2022/06/29 08:35:09;;;;;;;1.05;0.85;;;18.10;62.20;20.30;93803.00;;;;10565863;27;45791;-62
2022/06/29 08:40:44;;;;;;;1.52;1.00;;;18.10;62.20;20.30;93788.00;;;;10565522;27;45272;-62
2022/06/29 08:46:05;;;;;;;0.90;0.80;;;18.10;62.20;20.30;93789.00;;;;10566419;27;45157;-61
2022/06/29 08:51:33;;;;;;;0.73;0.73;;;18.10;62.10;20.30;93802.00;;;;10565888;27;45143;-62
2022/06/29 08:56:58;;;;;;;0.80;0.80;;;18.10;62.20;20.30;93804.00;;;;10565303;27;45789;-63
2022/06/29 09:02:19;;;;;;;0.90;0.80;;;18.10;62.10;20.30;93789.00;;;;10565198;27;45182;-63
2022/06/29 09:07:39;;;;;;;0.80;0.70;;;18.10;62.10;20.30;93810.00;;;;10564743;27;45483;-63
2022/06/29 09:13:05;;;;;;;0.98;0.90;;;18.10;62.10;20.30;93802.00;;;;10564955;27;44883;-62
2022/06/29 09:18:30;;;;;;;0.80;0.80;;;18.10;62.10;20.30;93794.00;;;;10564437;27;45253;-63
2022/06/29 09:23:50;;;;;;;1.20;0.70;;;18.10;62.10;20.30;93801.00;;;;10564677;27;45123;-63
2022/06/29 09:29:20;;;;;;;1.15;0.85;;;18.10;62.00;20.30;93807.00;;;;10564168;27;45756;-63
2022/06/29 09:34:44;;;;;;;0.70;0.70;;;18.10;62.00;20.30;93791.00;;;;10564262;27;45809;-63
2022/06/29 09:40:06;;;;;;;0.77;0.70;;;18.10;62.00;20.30;93801.00;;;;10563063;27;45849;-63
2022/06/29 09:45:28;;;;;;;0.98;0.70;;;18.10;62.00;20.30;93799.00;;;;10563680;27;45162;-61
2022/06/29 09:50:50;;;;;;;0.85;0.70;;;18.10;62.00;20.30;93797.00;;;;10562690;27;45372;-63
2022/06/29 09:56:15;;;;;;;1.48;0.70;;;18.10;62.00;20.30;93784.00;;;;10563464;27;45128;-63
2022/06/29 10:07:16;;;;;;;1.40;0.80;;;18.10;61.90;20.30;93783.00;;;;10562891;27;45278;-62
2022/06/29 10:19:25;;;;;;;0.73;0.70;;;18.10;61.90;20.30;93793.00;;;;10562876;27;45742;-62
2022/06/29 10:25:12;;;;;;;0.60;0.60;;;18.10;61.90;20.30;93777.00;;;;10563043;27;45231;-61
2022/06/29 10:30:33;;;;;;;0.60;0.53;;;18.10;61.90;20.30;93795.00;;;;10553734;27;45178;-62
2022/06/29 10:36:02;;;;;;;1.00;0.88;;;18.10;61.80;20.30;93791.00;;;;10562367;27;45178;-62
2022/06/29 10:47:02;;;;;;;1.00;0.77;;;18.10;61.80;20.30;93792.00;;;;10561790;27;45172;-62
2022/06/29 10:52:24;;;;;;;0.80;0.80;;;18.10;61.80;20.30;93774.00;;;;10562253;27;45746;-62
2022/06/29 10:57:47;;;;;;;0.80;0.80;;;18.10;61.80;20.30;93773.00;;;;10561213;27;45184;-62
2022/06/29 11:03:10;;;;;;;0.98;0.82;;;18.10;61.80;20.30;93771.00;;;;10569292;27;45768;-63
2022/06/29 11:19:53;;;;;;;0.85;0.70;;;18.10;61.70;20.30;93773.00;;;;10555562;27;45169;-61
2022/06/29 11:25:15;;;;;;;0.70;0.70;;;18.10;61.70;20.30;93776.00;;;;10568758;27;45127;-62
2022/06/29 11:30:36;;;;;;;0.85;0.63;;;18.10;61.70;20.30;93766.00;;;;10568720;27;45329;-62
2022/06/29 11:35:58;;;;;;;0.85;0.60;;;18.10;61.60;20.30;93768.00;;;;10568106;27;45130;-62
2022/06/29 11:41:22;;;;;;;0.65;0.50;;;18.10;61.70;20.30;93768.00;;;;10582392;22;45302;-63
2022/06/29 11:46:47;;;;;;;0.95;0.60;;;18.10;61.60;20.30;93763.00;;;;10567662;27;45682;-63
2022/06/29 11:52:12;;;;;;;0.65;0.65;;;18.10;61.60;20.30;93765.00;;;;10567532;27;45182;-63
2022/06/29 11:57:35;;;;;;;0.60;0.60;;;18.10;61.60;20.30;93745.00;;;;10566935;27;45143;-63
2022/06/29 12:02:58;;;;;;;0.73;0.47;;;18.10;61.60;20.30;93771.00;;;;10567125;27;45779;-63
2022/06/29 12:08:19;;;;;;;0.60;0.60;;;18.10;61.60;20.30;93762.00;;;;10566893;27;45201;-63
2022/06/29 12:13:40;;;;;;;0.60;0.60;;;18.10;61.60;20.30;93754.00;;;;10565964;27;45227;-63
2022/06/29 12:19:01;;;;;;;0.43;0.40;;;18.20;61.60;20.30;93765.00;;;;10566188;27;45195;-63
2022/06/29 12:24:21;;;;;;;0.50;0.50;;;18.10;61.60;20.30;93761.00;;;;10566541;27;45250;-63
2022/06/29 12:29:43;;;;;;;0.98;0.75;;;18.10;61.60;20.30;93759.00;;;;10566430;27;45671;-64
2022/06/29 12:35:05;;;;;;;0.60;0.60;;;18.10;61.50;20.30;93755.00;;;;10566559;27;45366;-63
2022/06/29 12:40:26;;;;;;;0.60;0.60;;;18.10;61.50;20.30;93747.00;;;;10565563;27;45173;-63
2022/06/29 12:45:48;;;;;;;0.60;0.50;;;18.20;61.50;20.30;93745.00;;;;10565531;27;45165;-63
2022/06/29 12:51:09;;;;;;;0.63;0.50;;;18.20;61.50;20.30;93740.00;;;;10565681;27;45175;-63
2022/06/29 12:56:29;;;;;;;0.88;0.70;;;18.10;61.50;20.30;93744.00;;;;10565338;27;45166;-63
2022/06/29 13:01:51;;;;;;;0.75;0.55;;;18.20;61.50;20.30;93741.00;;;;10565379;27;45875;-63
2022/06/29 13:07:12;;;;;;;0.60;0.60;;;18.10;61.40;20.30;93735.00;;;;10564729;27;45258;-63
2022/06/29 13:12:33;;;;;;;0.55;0.55;;;18.10;61.40;20.30;93733.00;;;;10564834;27;45742;-64
2022/06/29 13:17:54;;;;;;;0.63;0.63;;;18.20;61.50;20.30;93736.00;;;;10564340;27;45106;-63
2022/06/29 13:23:15;;;;;;;0.70;0.70;;;18.10;61.40;20.30;93726.00;;;;10564195;27;45131;-63
2022/06/29 13:28:38;;;;;;;0.50;0.50;;;18.20;61.50;20.30;93733.00;;;;10564303;27;45833;-63
2022/06/29 13:34:00;;;;;;;0.60;0.60;;;18.10;61.40;20.30;93735.00;;;;10564759;27;45290;-63
2022/06/29 13:39:21;;;;;;;0.60;0.60;;;18.20;61.50;20.30;93723.00;;;;10563454;27;45281;-63
2022/06/29 13:44:42;;;;;;;0.40;0.40;;;18.20;61.40;20.30;93719.00;;;;10563999;27;45137;-63
2022/06/29 13:50:04;;;;;;;0.60;0.60;;;18.20;61.40;20.30;93727.00;;;;10563304;27;45715;-63
2022/06/29 13:55:25;;;;;;;0.55;0.55;;;18.20;61.40;20.30;93716.00;;;;10563234;27;45800;-63
2022/06/29 14:00:46;;;;;;;0.40;0.40;;;18.20;61.40;20.30;93714.00;;;;10563170;27;45231;-63
2022/06/29 14:06:08;;;;;;;0.55;0.50;;;18.20;61.40;20.30;93716.00;;;;10563637;27;45722;-63
2022/06/29 14:11:29;;;;;;;0.50;0.50;;;18.20;61.40;20.30;93715.00;;;;10562768;27;45866;-63
2022/06/29 14:16:49;;;;;;;0.60;0.40;;;18.20;61.40;20.30;93703.00;;;;10562234;27;45164;-63
2022/06/29 14:22:11;;;;;;;0.68;0.50;;;18.20;61.30;20.30;93711.00;;;;10562615;27;45151;-63
2022/06/29 14:27:32;;;;;;;0.60;0.57;;;18.20;61.30;20.30;93710.00;;;;10562400;27;45282;-63
2022/06/29 14:32:53;;;;;;;0.65;0.50;;;18.20;61.30;20.30;93703.00;;;;10561984;27;45187;-64
2022/06/29 14:38:15;;;;;;;1.20;0.50;;;18.20;61.30;20.30;93709.00;;;;10561685;27;45180;-64
2022/06/29 14:43:36;;;;;;;0.50;0.40;;;18.20;61.30;20.30;93702.00;;;;10562309;27;45190;-63
2022/06/29 14:48:56;;;;;;;0.50;0.50;;;18.20;61.30;20.30;93689.00;;;;10562181;27;45399;-64
2022/06/29 14:54:18;;;;;;;0.52;0.50;;;18.20;61.30;20.30;93701.00;;;;10562177;27;45210;-64
2022/06/29 14:59:39;;;;;;;0.50;0.50;;;18.20;61.30;20.30;93685.00;;;;10561476;27;46040;-63
2022/06/29 15:04:59;;;;;;;0.65;0.50;;;18.20;61.30;20.30;93682.00;;;;10561687;27;45237;-64
2022/06/29 15:10:22;;;;;;;0.40;0.40;;;18.20;61.30;20.30;93677.00;;;;10561091;27;45238;-63
2022/06/29 15:15:46;;;;;;;0.50;0.50;;;18.20;61.30;20.30;93684.00;;;;10561126;27;45789;-63
2022/06/29 15:21:06;;;;;;;0.40;0.40;;;18.20;61.30;20.30;93671.00;;;;10560847;27;45692;-63
2022/06/29 15:26:29;;;;;;;0.40;0.40;;;18.20;61.30;20.30;93669.00;;;;10560717;27;45205;-63
2022/06/29 15:31:50;;;;;;;0.40;0.40;;;18.20;61.30;20.30;93666.00;;;;10561010;27;45159;-63
2022/06/29 15:43:01;;;;;;;0.40;0.40;;;18.20;61.20;20.30;93666.00;;;;10489080;27;45345;-63
2022/06/29 15:48:22;;;;;;;0.50;0.47;;;18.20;61.20;20.40;93659.00;;;;10567065;27;46099;-63
2022/06/29 15:59:22;;;;;;;0.40;0.40;;;18.20;61.20;20.40;93657.00;;;;10567043;27;45651;-63
2022/06/29 16:04:43;;;;;;;0.45;0.45;;;18.20;61.20;20.40;93640.00;;;;10567566;27;45221;-64
2022/06/29 16:10:05;;;;;;;0.55;0.40;;;18.20;61.20;20.40;93640.00;;;;10566546;27;45173;-63
2022/06/29 16:15:27;;;;;;;0.40;0.32;;;18.20;61.20;20.40;93631.00;;;;10567032;27;45325;-64
2022/06/29 16:20:48;;;;;;;0.50;0.50;;;18.20;61.10;20.40;93632.00;;;;10566574;27;45125;-63
2022/06/29 16:26:08;;;;;;;0.43;0.40;;;18.20;61.10;20.40;93631.00;;;;10566210;27;45852;-63
2022/06/29 16:31:30;;;;;;;0.57;0.43;;;18.20;61.10;20.40;93624.00;;;;10566026;27;45197;-64
2022/06/29 16:36:51;;;;;;;0.40;0.40;;;18.20;61.10;20.40;93626.00;;;;10565557;27;45170;-63
2022/06/29 16:42:11;;;;;;;0.30;0.30;;;18.20;61.00;20.40;93626.00;;;;10566746;27;45464;-63
2022/06/29 16:47:33;;;;;;;0.65;0.40;;;18.20;61.10;20.40;93609.00;;;;10565636;27;45745;-64
2022/06/29 16:52:53;;;;;;;0.40;0.40;;;18.20;61.10;20.40;93609.00;;;;10565621;27;45233;-63
2022/06/29 16:58:14;;;;;;;0.32;0.32;;;18.20;61.00;20.40;93621.00;;;;10564617;27;45116;-63
2022/06/29 17:03:36;;;;;;;0.30;0.30;;;18.20;61.00;20.40;93597.00;;;;10565462;27;45108;-63
2022/06/29 17:08:57;;;;;;;0.30;0.30;;;18.30;61.00;20.40;93592.00;;;;10564943;27;45757;-63
2022/06/29 17:14:18;;;;;;;0.40;0.40;;;18.20;60.90;20.40;93591.00;;;;10565079;27;45189;-64
2022/06/29 17:19:40;;;;;;;0.40;0.32;;;18.20;60.90;20.40;93601.00;;;;10564470;27;45686;-63
2022/06/29 17:25:00;;;;;;;0.77;0.50;;;18.20;60.90;20.40;93588.00;;;;10564880;27;45108;-63
2022/06/29 17:30:21;;;;;;;0.30;0.30;;;18.20;60.90;20.40;93590.00;;;;10563988;27;45761;-64
2022/06/29 17:35:43;;;;;;;0.50;0.40;;;18.20;61.00;20.40;93592.00;;;;10564563;27;45443;-63
2022/06/29 17:41:03;;;;;;;0.30;0.30;;;18.30;60.90;20.40;93588.00;;;;10564014;27;45199;-63
2022/06/29 17:46:23;;;;;;;0.25;0.25;;;18.30;60.90;20.40;93590.00;;;;10564095;27;45695;-63
2022/06/29 17:51:45;;;;;;;0.57;0.50;;;18.30;60.90;20.40;93568.00;;;;10563831;27;45157;-63
2022/06/29 17:57:06;;;;;;;0.30;0.30;;;18.30;60.90;20.40;93575.00;;;;10563278;27;45110;-63
2022/06/29 18:02:26;;;;;;;0.40;0.30;;;18.30;60.90;20.40;93563.00;;;;10563215;27;45221;-63
2022/06/29 18:07:48;;;;;;;0.32;0.32;;;18.20;61.60;20.40;93578.00;;;;10562310;27;45189;-64
2022/06/29 18:13:10;;;;;;;0.30;0.30;;;18.30;60.90;20.40;93586.00;;;;10563027;27;45790;-63
2022/06/29 18:18:30;;;;;;;0.30;0.30;;;18.30;60.90;20.40;93572.00;;;;10562439;27;45730;-64
2022/06/29 18:23:52;;;;;;;0.60;0.43;;;18.20;60.80;20.40;93578.00;;;;10562677;27;45232;-63
2022/06/29 18:29:12;;;;;;;0.77;0.40;;;18.30;60.80;20.40;93592.00;;;;10562460;27;45167;-64
2022/06/29 18:34:33;;;;;;;0.25;0.20;;;18.30;60.80;20.40;93581.00;;;;10562475;27;45680;-63
2022/06/29 18:39:55;;;;;;;0.30;0.30;;;18.30;60.90;20.40;93588.00;;;;10561622;27;45092;-63
2022/06/29 18:45:15;;;;;;;0.50;0.28;;;18.30;60.80;20.40;93594.00;;;;10562142;27;45150;-63
2022/06/29 18:50:36;;;;;;;0.38;0.38;;;18.30;60.80;20.40;93591.00;;;;10561670;27;46015;-63
2022/06/29 18:55:58;;;;;;;0.30;0.30;;;18.30;61.70;20.40;93587.00;;;;10561721;27;45126;-63
2022/06/29 19:01:19;;;;;;;0.38;0.38;;;18.30;60.90;20.40;93590.00;;;;10561303;27;45761;-63
2022/06/29 19:06:40;;;;;;;0.30;0.30;;;18.30;60.90;20.40;93592.00;;;;10561753;27;45387;-63
2022/06/29 19:12:03;;;;;;;0.40;0.40;;;18.30;60.90;20.40;93588.00;;;;10561429;27;45154;-63
2022/06/29 19:17:24;;;;;;;0.22;0.22;;;18.30;60.90;20.40;93600.00;;;;10560877;27;45683;-63
2022/06/29 19:22:45;;;;;;;0.30;0.30;;;18.30;60.90;20.40;93595.00;;;;10566738;27;45834;-63
2022/06/29 19:28:06;;;;;;;0.73;0.40;;;18.30;60.90;20.40;93603.00;;;;10568127;27;45259;-63
2022/06/29 19:33:27;;;;;;;0.32;0.32;;;18.30;60.90;20.40;93616.00;;;;10568458;27;45188;-64
2022/06/29 19:38:48;;;;;;;0.40;0.40;;;18.30;60.90;20.40;93614.00;;;;10564494;27;45976;-63
2022/06/29 19:44:10;;;;;;;0.40;0.40;;;18.30;60.90;20.40;93623.00;;;;10563068;27;45757;-63
2022/06/29 19:49:31;;;;;;;0.30;0.30;;;18.30;60.90;20.40;93631.00;;;;10566318;27;45234;-64
2022/06/29 19:54:52;;;;;;;0.20;0.20;;;18.30;60.90;20.40;93625.00;;;;10567631;27;45193;-63
2022/06/29 20:00:14;;;;;;;0.30;0.30;;;18.30;60.90;20.40;93641.00;;;;10567443;27;45240;-63
2022/06/29 20:05:35;;;;;;;0.28;0.28;;;18.30;60.90;20.40;93632.00;;;;10567127;27;45158;-63
2022/06/29 20:10:56;;;;;;;0.40;0.40;;;18.30;61.00;20.40;93642.00;;;;10566975;27;45931;-63
2022/06/29 20:16:18;;;;;;;0.30;0.30;;;18.30;61.00;20.40;93640.00;;;;10567108;27;45137;-63
2022/06/29 20:21:39;;;;;;;0.25;0.25;;;18.30;61.00;20.40;93651.00;;;;10566377;27;45856;-63
2022/06/29 20:27:00;;;;;;;0.38;0.38;;;18.30;61.00;20.40;93655.00;;;;10566105;27;45126;-63
2022/06/29 20:32:22;;;;;;;0.30;0.30;;;18.30;61.00;20.40;93649.00;;;;10565368;27;45691;-63
2022/06/29 20:37:42;;;;;;;0.30;0.30;;;18.30;61.00;20.40;93653.00;;;;10565297;27;45209;-63
2022/06/29 20:43:03;;;;;;;0.47;0.32;;;18.30;61.00;20.40;93645.00;;;;10565928;27;45768;-63
2022/06/29 20:48:25;;;;;;;0.30;0.30;;;18.30;61.10;20.40;93654.00;;;;10566180;27;46139;-63
2022/06/29 20:53:46;;;;;;;0.52;0.40;;;18.30;61.10;20.40;93667.00;;;;10565533;27;45117;-63
2022/06/29 20:59:06;;;;;;;0.40;0.40;;;18.20;61.10;20.40;93676.00;;;;10565253;27;45735;-63
2022/06/29 21:04:28;;;;;;;0.30;0.30;;;18.20;61.10;20.40;93677.00;;;;10565156;27;45199;-63
2022/06/29 21:09:49;;;;;;;0.30;0.30;;;18.30;61.20;20.40;93666.00;;;;10564876;27;45130;-63
2022/06/29 21:15:11;;;;;;;0.30;0.30;;;18.30;61.10;20.40;93677.00;;;;10565064;27;45124;-63
2022/06/29 21:20:33;;;;;;;0.40;0.30;;;18.30;61.20;20.40;93676.00;;;;10564638;27;45165;-63
2022/06/29 21:25:54;;;;;;;0.30;0.30;;;18.30;61.10;20.40;93671.00;;;;10564538;27;45250;-63
2022/06/29 21:31:15;;;;;;;0.40;0.30;;;18.30;61.20;20.40;93652.00;;;;10564238;27;45295;-63
2022/06/29 21:36:37;;;;;;;0.40;0.40;;;18.30;61.10;20.40;93673.00;;;;10563998;27;45731;-63
2022/06/29 21:41:58;;;;;;;0.30;0.30;;;18.30;61.10;20.40;93675.00;;;;10563934;27;45158;-63
2022/06/29 21:47:19;;;;;;;0.60;0.40;;;18.30;61.20;20.40;93664.00;;;;10563465;27;45203;-63
2022/06/29 21:52:41;;;;;;;0.30;0.30;;;18.20;61.10;20.40;93671.00;;;;10563464;27;45652;-63
2022/06/29 21:58:01;;;;;;;0.30;0.30;;;18.20;61.10;20.40;93664.00;;;;10564122;27;45286;-63
2022/06/29 22:03:22;;;;;;;0.25;0.25;;;18.20;61.20;20.40;93670.00;;;;10563486;27;45295;-64
2022/06/29 22:08:44;;;;;;;0.38;0.20;;;18.30;61.30;20.40;93672.00;;;;10563028;27;45234;-63
2022/06/29 22:14:04;;;;;;;0.45;0.30;;;18.30;61.20;20.40;93659.00;;;;10562778;27;45773;-63
2022/06/29 22:19:25;;;;;;;0.30;0.30;;;18.20;61.20;20.40;93675.00;;;;10562309;27;45256;-63
2022/06/29 22:24:47;;;;;;;0.20;0.20;;;18.20;61.20;20.40;93674.00;;;;10562427;27;45155;-63
2022/06/29 22:30:09;;;;;;;0.30;0.30;;;18.20;61.30;20.40;93673.00;;;;10562007;27;45805;-63
2022/06/29 22:35:30;;;;;;;0.25;0.25;;;18.20;61.30;20.40;93660.00;;;;10562460;27;45707;-63
2022/06/29 22:40:52;;;;;;;0.30;0.25;;;18.20;61.30;20.40;93673.00;;;;10561465;27;45754;-64
2022/06/29 22:46:12;;;;;;;0.60;0.30;;;18.20;61.20;20.40;93677.00;;;;10561676;27;45860;-63
2022/06/29 22:51:33;;;;;;;0.32;0.30;;;18.20;61.20;20.40;93668.00;;;;10561989;27;45777;-63
2022/06/29 22:56:55;;;;;;;0.32;0.30;;;18.20;61.20;20.40;93663.00;;;;10560503;27;45148;-63
2022/06/29 23:02:15;;;;;;;1.05;0.40;;;18.20;61.10;20.40;93657.00;;;;10561649;27;45220;-65
2022/06/29 23:07:36;;;;;;;0.30;0.30;;;18.20;61.10;20.40;93665.00;;;;10561058;27;45199;-65
2022/06/29 23:12:58;;;;;;;0.30;0.30;;;18.20;61.10;20.40;93657.00;;;;10561522;27;45153;-65
2022/06/29 23:18:19;;;;;;;0.30;0.20;;;18.20;61.10;20.40;93627.00;;;;10560777;27;45085;-64
2022/06/29 23:23:39;;;;;;;0.20;0.20;;;18.20;61.00;20.40;93651.00;;;;10561070;27;45102;-64
2022/06/29 23:29:02;;;;;;;0.30;0.22;;;18.20;61.00;20.40;93641.00;;;;10560722;27;45100;-65
2022/06/29 23:34:23;;;;;;;0.20;0.20;;;18.20;61.00;20.40;93637.00;;;;10560908;27;45765;-64
2022/06/29 23:39:43;;;;;;;0.20;0.20;;;18.20;61.00;20.40;93645.00;;;;10560270;27;45285;-63
2022/06/29 23:45:08;;;;;;;0.25;0.20;;;18.20;61.00;20.40;93638.00;;;;10560497;27;45703;-63
2022/06/29 23:50:29;;;;;;;0.50;0.30;;;18.20;61.20;20.40;93630.00;;;;10560426;27;45194;-63
2022/06/29 23:55:50;;;;;;;0.40;0.30;;;18.20;61.10;20.40;93641.00;;;;10560244;27;45226;-64
